sensor_id;sensor_type;location;lat;lon;timestamp;temperature;humidity
51884;DHT22;37915;53.254;6.598;2023-04-03T00:00:59;2.10;99.90
51884;DHT22;37915;53.254;6.598;2023-04-03T00:03:25;3.00;99.90
51884;DHT22;37915;53.254;6.598;2023-04-03T00:05:51;1.90;99.90
51884;DHT22;37915;53.254;6.598;2023-04-03T00:08:16;1.80;99.90
51884;DHT22;37915;53.254;6.598;2023-04-03T00:10:42;2.00;99.90
51884;DHT22;37915;53.254;6.598;2023-04-03T00:13:08;1.80;99.90
51884;DHT22;37915;53.254;6.598;2023-04-03T00:15:35;2.30;99.90
51884;DHT22;37915;53.254;6.598;2023-04-03T00:18:01;2.80;99.90
51884;DHT22;37915;53.254;6.598;2023-04-03T00:20:27;1.80;99.90
51884;DHT22;37915;53.254;6.598;2023-04-03T00:22:53;1.80;99.90
51884;DHT22;37915;53.254;6.598;2023-04-03T00:25:19;2.10;99.90
51884;DHT22;37915;53.254;6.598;2023-04-03T00:27:45;2.30;99.90
51884;DHT22;37915;53.254;6.598;2023-04-03T00:30:14;2.40;99.90
51884;DHT22;37915;53.254;6.598;2023-04-03T00:32:40;2.40;99.90
51884;DHT22;37915;53.254;6.598;2023-04-03T00:35:06;1.70;99.90
51884;DHT22;37915;53.254;6.598;2023-04-03T00:37:32;1.70;99.90
51884;DHT22;37915;53.254;6.598;2023-04-03T00:39:58;1.70;99.90
51884;DHT22;37915;53.254;6.598;2023-04-03T00:42:25;1.70;99.90
51884;DHT22;37915;53.254;6.598;2023-04-03T00:47:23;1.70;99.90
51884;DHT22;37915;53.254;6.598;2023-04-03T00:49:50;2.80;99.90
51884;DHT22;37915;53.254;6.598;2023-04-03T00:52:18;1.60;99.90
51884;DHT22;37915;53.254;6.598;2023-04-03T00:54:47;1.50;99.90
51884;DHT22;37915;53.254;6.598;2023-04-03T00:57:13;1.50;99.90
51884;DHT22;37915;53.254;6.598;2023-04-03T00:59:44;1.40;99.90
51884;DHT22;37915;53.254;6.598;2023-04-03T01:02:12;2.20;99.90
51884;DHT22;37915;53.254;6.598;2023-04-03T01:04:40;1.40;99.90
51884;DHT22;37915;53.254;6.598;2023-04-03T01:07:10;1.90;99.90
51884;DHT22;37915;53.254;6.598;2023-04-03T01:09:37;1.30;99.90
51884;DHT22;37915;53.254;6.598;2023-04-03T01:12:22;1.20;99.90
51884;DHT22;37915;53.254;6.598;2023-04-03T01:15:18;1.30;99.90
51884;DHT22;37915;53.254;6.598;2023-04-03T01:17:48;1.30;99.90
51884;DHT22;37915;53.254;6.598;2023-04-03T01:25:12;1.50;99.90
51884;DHT22;37915;53.254;6.598;2023-04-03T01:27:38;1.30;99.90
51884;DHT22;37915;53.254;6.598;2023-04-03T01:30:04;1.90;99.90
51884;DHT22;37915;53.254;6.598;2023-04-03T01:32:31;1.40;99.90
51884;DHT22;37915;53.254;6.598;2023-04-03T01:34:56;1.70;99.90
51884;DHT22;37915;53.254;6.598;2023-04-03T01:37:22;1.60;99.90
51884;DHT22;37915;53.254;6.598;2023-04-03T01:39:48;1.40;99.90
51884;DHT22;37915;53.254;6.598;2023-04-03T01:42:13;1.40;99.90
51884;DHT22;37915;53.254;6.598;2023-04-03T01:44:39;1.40;99.90
51884;DHT22;37915;53.254;6.598;2023-04-03T01:47:08;1.80;99.90
51884;DHT22;37915;53.254;6.598;2023-04-03T01:49:33;1.50;99.90
51884;DHT22;37915;53.254;6.598;2023-04-03T01:51:59;1.50;99.90
51884;DHT22;37915;53.254;6.598;2023-04-03T01:54:25;1.60;99.90
51884;DHT22;37915;53.254;6.598;2023-04-03T01:56:51;1.40;99.90
51884;DHT22;37915;53.254;6.598;2023-04-03T01:59:17;2.10;99.90
51884;DHT22;37915;53.254;6.598;2023-04-03T02:01:43;1.60;99.90
51884;DHT22;37915;53.254;6.598;2023-04-03T02:04:11;1.40;99.90
51884;DHT22;37915;53.254;6.598;2023-04-03T02:06:37;1.40;99.90
51884;DHT22;37915;53.254;6.598;2023-04-03T02:09:03;1.40;99.90
51884;DHT22;37915;53.254;6.598;2023-04-03T02:11:29;2.10;99.90
51884;DHT22;37915;53.254;6.598;2023-04-03T02:13:55;1.40;99.90
51884;DHT22;37915;53.254;6.598;2023-04-03T02:16:21;1.80;99.90
51884;DHT22;37915;53.254;6.598;2023-04-03T02:18:47;2.30;99.90
51884;DHT22;37915;53.254;6.598;2023-04-03T02:21:12;1.30;99.90
51884;DHT22;37915;53.254;6.598;2023-04-03T02:23:38;2.10;99.90
51884;DHT22;37915;53.254;6.598;2023-04-03T02:26:09;1.40;99.90
51884;DHT22;37915;53.254;6.598;2023-04-03T02:28:36;2.00;99.90
51884;DHT22;37915;53.254;6.598;2023-04-03T02:31:02;1.20;99.90
51884;DHT22;37915;53.254;6.598;2023-04-03T02:33:28;1.10;99.90
51884;DHT22;37915;53.254;6.598;2023-04-03T02:35:55;1.10;99.90
51884;DHT22;37915;53.254;6.598;2023-04-03T02:38:21;1.10;99.90
51884;DHT22;37915;53.254;6.598;2023-04-03T02:40:47;2.20;99.90
51884;DHT22;37915;53.254;6.598;2023-04-03T02:43:13;1.20;99.90
51884;DHT22;37915;53.254;6.598;2023-04-03T02:45:39;1.00;99.90
51884;DHT22;37915;53.254;6.598;2023-04-03T02:48:05;1.80;99.90
51884;DHT22;37915;53.254;6.598;2023-04-03T02:50:31;1.00;99.90
51884;DHT22;37915;53.254;6.598;2023-04-03T02:52:57;1.60;99.90
51884;DHT22;37915;53.254;6.598;2023-04-03T02:55:23;0.90;99.90
51884;DHT22;37915;53.254;6.598;2023-04-03T02:57:48;0.90;99.90
51884;DHT22;37915;53.254;6.598;2023-04-03T03:00:14;2.40;99.90
51884;DHT22;37915;53.254;6.598;2023-04-03T03:02:40;0.90;99.90
51884;DHT22;37915;53.254;6.598;2023-04-03T03:05:06;0.90;99.90
51884;DHT22;37915;53.254;6.598;2023-04-03T03:07:33;0.80;99.90
51884;DHT22;37915;53.254;6.598;2023-04-03T03:09:58;1.20;99.90
51884;DHT22;37915;53.254;6.598;2023-04-03T03:12:24;1.20;99.90
51884;DHT22;37915;53.254;6.598;2023-04-03T03:14:50;0.80;99.90
51884;DHT22;37915;53.254;6.598;2023-04-03T03:17:17;0.80;99.90
51884;DHT22;37915;53.254;6.598;2023-04-03T03:19:43;0.90;99.90
51884;DHT22;37915;53.254;6.598;2023-04-03T03:22:09;1.20;99.90
51884;DHT22;37915;53.254;6.598;2023-04-03T03:24:34;0.70;99.90
51884;DHT22;37915;53.254;6.598;2023-04-03T03:27:00;0.70;99.90
51884;DHT22;37915;53.254;6.598;2023-04-03T03:29:26;0.60;99.90
51884;DHT22;37915;53.254;6.598;2023-04-03T03:31:52;1.00;99.90
51884;DHT22;37915;53.254;6.598;2023-04-03T03:34:17;0.50;99.90
51884;DHT22;37915;53.254;6.598;2023-04-03T03:36:43;1.00;99.90
51884;DHT22;37915;53.254;6.598;2023-04-03T03:39:09;0.40;99.90
51884;DHT22;37915;53.254;6.598;2023-04-03T03:41:35;1.20;99.90
51884;DHT22;37915;53.254;6.598;2023-04-03T03:44:01;0.30;99.90
51884;DHT22;37915;53.254;6.598;2023-04-03T03:46:27;1.10;99.90
51884;DHT22;37915;53.254;6.598;2023-04-03T03:48:52;0.20;99.90
51884;DHT22;37915;53.254;6.598;2023-04-03T03:51:18;0.10;99.90
51884;DHT22;37915;53.254;6.598;2023-04-03T03:53:44;0.10;99.90
51884;DHT22;37915;53.254;6.598;2023-04-03T03:56:09;1.40;99.90
51884;DHT22;37915;53.254;6.598;2023-04-03T03:58:35;1.30;99.90
51884;DHT22;37915;53.254;6.598;2023-04-03T04:01:05;0.00;99.90
51884;DHT22;37915;53.254;6.598;2023-04-03T04:03:31;0.50;99.90
51884;DHT22;37915;53.254;6.598;2023-04-03T04:05:57;0.00;99.90
51884;DHT22;37915;53.254;6.598;2023-04-03T04:08:23;-0.10;99.90
51884;DHT22;37915;53.254;6.598;2023-04-03T04:10:49;1.00;99.90
51884;DHT22;37915;53.254;6.598;2023-04-03T04:13:15;-0.20;99.90
51884;DHT22;37915;53.254;6.598;2023-04-03T04:15:41;-0.20;99.90
51884;DHT22;37915;53.254;6.598;2023-04-03T04:18:07;-0.30;99.90
51884;DHT22;37915;53.254;6.598;2023-04-03T04:20:33;-0.30;99.90
51884;DHT22;37915;53.254;6.598;2023-04-03T04:22:58;-0.30;99.90
51884;DHT22;37915;53.254;6.598;2023-04-03T04:25:24;-0.30;99.90
51884;DHT22;37915;53.254;6.598;2023-04-03T04:27:50;-0.30;99.90
51884;DHT22;37915;53.254;6.598;2023-04-03T04:30:15;0.70;99.90
51884;DHT22;37915;53.254;6.598;2023-04-03T04:32:41;0.80;99.90
51884;DHT22;37915;53.254;6.598;2023-04-03T04:35:07;0.60;99.90
51884;DHT22;37915;53.254;6.598;2023-04-03T04:37:33;-0.30;99.90
51884;DHT22;37915;53.254;6.598;2023-04-03T04:39:59;0.70;99.90
51884;DHT22;37915;53.254;6.598;2023-04-03T04:42:25;-0.30;99.90
51884;DHT22;37915;53.254;6.598;2023-04-03T04:44:50;-0.30;99.90
51884;DHT22;37915;53.254;6.598;2023-04-03T04:47:16;-0.30;99.90
51884;DHT22;37915;53.254;6.598;2023-04-03T04:49:42;1.30;99.90
51884;DHT22;37915;53.254;6.598;2023-04-03T04:52:07;0.70;99.90
51884;DHT22;37915;53.254;6.598;2023-04-03T04:54:33;0.60;99.90
51884;DHT22;37915;53.254;6.598;2023-04-03T04:56:59;-0.10;99.90
51884;DHT22;37915;53.254;6.598;2023-04-03T04:59:24;-0.10;99.90
51884;DHT22;37915;53.254;6.598;2023-04-03T05:01:50;-0.10;99.90
51884;DHT22;37915;53.254;6.598;2023-04-03T05:04:16;1.40;99.90
51884;DHT22;37915;53.254;6.598;2023-04-03T05:06:42;0.40;99.90
51884;DHT22;37915;53.254;6.598;2023-04-03T05:09:08;0.70;99.90
51884;DHT22;37915;53.254;6.598;2023-04-03T05:11:35;-0.20;99.90
51884;DHT22;37915;53.254;6.598;2023-04-03T05:14:01;1.10;99.90
51884;DHT22;37915;53.254;6.598;2023-04-03T05:16:27;0.00;99.90
51884;DHT22;37915;53.254;6.598;2023-04-03T05:18:53;-0.20;99.90
51884;DHT22;37915;53.254;6.598;2023-04-03T05:21:18;0.20;99.90
51884;DHT22;37915;53.254;6.598;2023-04-03T05:23:44;0.50;99.90
51884;DHT22;37915;53.254;6.598;2023-04-03T05:26:10;-0.30;99.90
51884;DHT22;37915;53.254;6.598;2023-04-03T05:28:36;-0.30;99.90
51884;DHT22;37915;53.254;6.598;2023-04-03T05:31:02;-0.30;99.90
51884;DHT22;37915;53.254;6.598;2023-04-03T05:33:28;-0.30;99.90
51884;DHT22;37915;53.254;6.598;2023-04-03T05:35:54;0.50;99.90
51884;DHT22;37915;53.254;6.598;2023-04-03T05:38:20;0.10;99.90
51884;DHT22;37915;53.254;6.598;2023-04-03T05:40:45;-0.30;99.90
51884;DHT22;37915;53.254;6.598;2023-04-03T05:43:11;-0.30;99.90
51884;DHT22;37915;53.254;6.598;2023-04-03T05:45:37;0.70;99.90
51884;DHT22;37915;53.254;6.598;2023-04-03T05:48:03;0.20;99.90
51884;DHT22;37915;53.254;6.598;2023-04-03T05:50:29;-0.30;99.90
51884;DHT22;37915;53.254;6.598;2023-04-03T05:52:57;0.90;99.90
51884;DHT22;37915;53.254;6.598;2023-04-03T05:55:24;0.80;99.90
51884;DHT22;37915;53.254;6.598;2023-04-03T05:57:49;-0.20;99.90
51884;DHT22;37915;53.254;6.598;2023-04-03T06:00:16;1.30;99.90
51884;DHT22;37915;53.254;6.598;2023-04-03T06:02:42;-0.10;99.90
51884;DHT22;37915;53.254;6.598;2023-04-03T06:05:09;0.00;99.90
51884;DHT22;37915;53.254;6.598;2023-04-03T06:07:36;0.10;99.90
51884;DHT22;37915;53.254;6.598;2023-04-03T06:10:03;1.40;99.90
51884;DHT22;37915;53.254;6.598;2023-04-03T06:12:29;0.20;99.90
51884;DHT22;37915;53.254;6.598;2023-04-03T06:14:55;0.20;99.90
51884;DHT22;37915;53.254;6.598;2023-04-03T06:17:21;0.40;99.90
51884;DHT22;37915;53.254;6.598;2023-04-03T06:19:47;1.00;99.90
51884;DHT22;37915;53.254;6.598;2023-04-03T06:22:13;0.80;99.90
51884;DHT22;37915;53.254;6.598;2023-04-03T06:24:39;1.90;99.90
51884;DHT22;37915;53.254;6.598;2023-04-03T06:27:05;1.10;99.90
51884;DHT22;37915;53.254;6.598;2023-04-03T06:29:31;0.60;99.90
51884;DHT22;37915;53.254;6.598;2023-04-03T06:31:57;0.70;99.90
51884;DHT22;37915;53.254;6.598;2023-04-03T06:34:22;0.80;99.90
51884;DHT22;37915;53.254;6.598;2023-04-03T06:36:48;1.40;99.90
51884;DHT22;37915;53.254;6.598;2023-04-03T06:39:23;0.90;99.90
51884;DHT22;37915;53.254;6.598;2023-04-03T06:41:50;1.00;99.90
51884;DHT22;37915;53.254;6.598;2023-04-03T06:44:16;2.30;99.90
51884;DHT22;37915;53.254;6.598;2023-04-03T06:46:43;1.20;99.90
51884;DHT22;37915;53.254;6.598;2023-04-03T06:49:09;1.30;99.90
51884;DHT22;37915;53.254;6.598;2023-04-03T06:51:35;1.40;99.90
51884;DHT22;37915;53.254;6.598;2023-04-03T06:54:03;2.10;99.90
51884;DHT22;37915;53.254;6.598;2023-04-03T06:56:29;2.50;99.90
51884;DHT22;37915;53.254;6.598;2023-04-03T06:58:55;2.10;99.90
51884;DHT22;37915;53.254;6.598;2023-04-03T07:01:24;1.80;99.90
51884;DHT22;37915;53.254;6.598;2023-04-03T07:03:52;1.90;99.90
51884;DHT22;37915;53.254;6.598;2023-04-03T07:06:24;2.00;99.90
51884;DHT22;37915;53.254;6.598;2023-04-03T07:08:52;2.40;99.90
51884;DHT22;37915;53.254;6.598;2023-04-03T07:11:18;2.10;99.90
51884;DHT22;37915;53.254;6.598;2023-04-03T07:13:44;2.20;99.90
51884;DHT22;37915;53.254;6.598;2023-04-03T07:16:09;3.40;99.90
51884;DHT22;37915;53.254;6.598;2023-04-03T07:18:35;3.50;99.90
51884;DHT22;37915;53.254;6.598;2023-04-03T07:21:01;2.70;99.90
51884;DHT22;37915;53.254;6.598;2023-04-03T07:23:27;2.80;99.90
51884;DHT22;37915;53.254;6.598;2023-04-03T07:25:54;2.60;99.90
51884;DHT22;37915;53.254;6.598;2023-04-03T07:28:21;3.30;99.90
51884;DHT22;37915;53.254;6.598;2023-04-03T07:30:50;3.00;99.90
51884;DHT22;37915;53.254;6.598;2023-04-03T07:33:18;3.00;99.90
51884;DHT22;37915;53.254;6.598;2023-04-03T07:35:44;3.50;99.90
51884;DHT22;37915;53.254;6.598;2023-04-03T07:38:11;3.20;99.90
51884;DHT22;37915;53.254;6.598;2023-04-03T07:40:37;3.20;99.90
51884;DHT22;37915;53.254;6.598;2023-04-03T07:43:04;3.40;99.90
51884;DHT22;37915;53.254;6.598;2023-04-03T07:45:31;3.50;99.90
51884;DHT22;37915;53.254;6.598;2023-04-03T07:47:57;3.60;99.90
51884;DHT22;37915;53.254;6.598;2023-04-03T07:50:22;4.00;99.90
51884;DHT22;37915;53.254;6.598;2023-04-03T07:52:48;4.30;99.90
51884;DHT22;37915;53.254;6.598;2023-04-03T07:55:16;3.70;99.90
51884;DHT22;37915;53.254;6.598;2023-04-03T07:57:42;3.80;99.90
51884;DHT22;37915;53.254;6.598;2023-04-03T08:00:08;4.30;99.90
51884;DHT22;37915;53.254;6.598;2023-04-03T08:02:34;4.00;99.90
51884;DHT22;37915;53.254;6.598;2023-04-03T08:05:00;4.00;99.90
51884;DHT22;37915;53.254;6.598;2023-04-03T08:07:26;4.00;99.90
51884;DHT22;37915;53.254;6.598;2023-04-03T08:09:52;4.10;99.90
51884;DHT22;37915;53.254;6.598;2023-04-03T08:12:17;4.20;99.90
51884;DHT22;37915;53.254;6.598;2023-04-03T08:14:43;4.20;99.90
51884;DHT22;37915;53.254;6.598;2023-04-03T08:17:09;4.40;99.90
51884;DHT22;37915;53.254;6.598;2023-04-03T08:19:40;4.40;99.90
51884;DHT22;37915;53.254;6.598;2023-04-03T08:22:06;4.50;99.90
51884;DHT22;37915;53.254;6.598;2023-04-03T08:24:33;4.50;99.90
51884;DHT22;37915;53.254;6.598;2023-04-03T08:26:59;4.70;99.90
51884;DHT22;37915;53.254;6.598;2023-04-03T08:29:25;4.80;99.90
51884;DHT22;37915;53.254;6.598;2023-04-03T08:31:51;5.60;99.90
51884;DHT22;37915;53.254;6.598;2023-04-03T08:34:17;4.90;99.90
51884;DHT22;37915;53.254;6.598;2023-04-03T08:36:43;4.90;99.90
51884;DHT22;37915;53.254;6.598;2023-04-03T08:39:09;4.90;99.90
51884;DHT22;37915;53.254;6.598;2023-04-03T08:41:41;5.00;99.90
51884;DHT22;37915;53.254;6.598;2023-04-03T08:49:35;5.20;99.90
51884;DHT22;37915;53.254;6.598;2023-04-03T08:52:11;5.30;99.90
51884;DHT22;37915;53.254;6.598;2023-04-03T08:54:49;5.50;99.90
51884;DHT22;37915;53.254;6.598;2023-04-03T08:57:18;5.50;99.90
51884;DHT22;37915;53.254;6.598;2023-04-03T08:59:45;5.50;99.90
51884;DHT22;37915;53.254;6.598;2023-04-03T09:02:30;5.70;99.90
51884;DHT22;37915;53.254;6.598;2023-04-03T09:04:58;5.60;99.90
51884;DHT22;37915;53.254;6.598;2023-04-03T09:08:00;5.80;99.90
51884;DHT22;37915;53.254;6.598;2023-04-03T09:10:32;5.90;99.90
51884;DHT22;37915;53.254;6.598;2023-04-03T09:13:13;6.10;99.90
51884;DHT22;37915;53.254;6.598;2023-04-03T09:15:44;6.20;99.90
51884;DHT22;37915;53.254;6.598;2023-04-03T09:18:17;6.40;99.90
51884;DHT22;37915;53.254;6.598;2023-04-03T09:23:34;6.50;99.90
51884;DHT22;37915;53.254;6.598;2023-04-03T09:26:09;6.50;99.90
51884;DHT22;37915;53.254;6.598;2023-04-03T09:28:39;6.60;99.90
51884;DHT22;37915;53.254;6.598;2023-04-03T09:31:38;6.70;99.90
51884;DHT22;37915;53.254;6.598;2023-04-03T09:34:23;6.80;99.90
51884;DHT22;37915;53.254;6.598;2023-04-03T09:36:59;6.90;99.90
51884;DHT22;37915;53.254;6.598;2023-04-03T09:39:32;7.10;99.90
51884;DHT22;37915;53.254;6.598;2023-04-03T09:42:04;7.30;99.90
51884;DHT22;37915;53.254;6.598;2023-04-03T09:44:35;7.40;99.90
51884;DHT22;37915;53.254;6.598;2023-04-03T09:47:25;7.60;99.90
51884;DHT22;37915;53.254;6.598;2023-04-03T09:52:34;8.10;99.90
51884;DHT22;37915;53.254;6.598;2023-04-03T09:55:17;8.10;99.90
51884;DHT22;37915;53.254;6.598;2023-04-03T09:57:46;8.00;99.90
51884;DHT22;37915;53.254;6.598;2023-04-03T10:00:26;8.10;99.90
51884;DHT22;37915;53.254;6.598;2023-04-03T10:02:57;8.30;99.90
51884;DHT22;37915;53.254;6.598;2023-04-03T10:07:51;8.80;99.90
51884;DHT22;37915;53.254;6.598;2023-04-03T10:10:20;8.90;99.90
51884;DHT22;37915;53.254;6.598;2023-04-03T10:13:02;9.00;99.90
51884;DHT22;37915;53.254;6.598;2023-04-03T10:15:29;8.90;99.90
51884;DHT22;37915;53.254;6.598;2023-04-03T10:18:02;9.00;99.90
51884;DHT22;37915;53.254;6.598;2023-04-03T10:20:42;9.00;99.90
51884;DHT22;37915;53.254;6.598;2023-04-03T10:26:09;9.40;99.90
51884;DHT22;37915;53.254;6.598;2023-04-03T10:28:48;9.70;99.90
51884;DHT22;37915;53.254;6.598;2023-04-03T10:40:10;10.10;99.90
51884;DHT22;37915;53.254;6.598;2023-04-03T10:42:42;10.10;99.90
51884;DHT22;37915;53.254;6.598;2023-04-03T10:45:24;10.20;99.90
51884;DHT22;37915;53.254;6.598;2023-04-03T10:58:42;10.30;99.90
51884;DHT22;37915;53.254;6.598;2023-04-03T11:01:13;10.30;99.90
51884;DHT22;37915;53.254;6.598;2023-04-03T11:03:53;10.40;99.90
51884;DHT22;37915;53.254;6.598;2023-04-03T11:06:22;10.50;99.90
51884;DHT22;37915;53.254;6.598;2023-04-03T11:09:02;10.40;99.90
51884;DHT22;37915;53.254;6.598;2023-04-03T11:11:38;10.20;99.90
51884;DHT22;37915;53.254;6.598;2023-04-03T11:14:30;10.00;99.90
51884;DHT22;37915;53.254;6.598;2023-04-03T11:17:06;9.90;99.90
51884;DHT22;37915;53.254;6.598;2023-04-03T11:19:49;9.80;99.90
51884;DHT22;37915;53.254;6.598;2023-04-03T11:25:05;9.60;99.90
51884;DHT22;37915;53.254;6.598;2023-04-03T11:27:41;9.50;99.90
51884;DHT22;37915;53.254;6.598;2023-04-03T11:35:57;9.10;99.90
51884;DHT22;37915;53.254;6.598;2023-04-03T11:38:27;9.00;99.90
51884;DHT22;37915;53.254;6.598;2023-04-03T11:40:56;8.90;99.90
51884;DHT22;37915;53.254;6.598;2023-04-03T11:43:28;8.80;99.90
51884;DHT22;37915;53.254;6.598;2023-04-03T11:46:05;8.90;99.90
51884;DHT22;37915;53.254;6.598;2023-04-03T11:53:52;8.90;99.90
51884;DHT22;37915;53.254;6.598;2023-04-03T12:04:24;8.90;99.90
51884;DHT22;37915;53.254;6.598;2023-04-03T12:07:11;8.80;99.90
51884;DHT22;37915;53.254;6.598;2023-04-03T12:12:27;8.80;99.90
51884;DHT22;37915;53.254;6.598;2023-04-03T12:14:53;8.80;99.90
51884;DHT22;37915;53.254;6.598;2023-04-03T12:17:28;8.90;99.90
51884;DHT22;37915;53.254;6.598;2023-04-03T12:19:55;8.80;99.90
51884;DHT22;37915;53.254;6.598;2023-04-03T12:22:21;8.90;99.90
51884;DHT22;37915;53.254;6.598;2023-04-03T12:24:50;8.80;99.90
51884;DHT22;37915;53.254;6.598;2023-04-03T12:27:47;8.80;99.90
51884;DHT22;37915;53.254;6.598;2023-04-03T12:30:21;8.90;99.90
51884;DHT22;37915;53.254;6.598;2023-04-03T12:41:42;9.00;99.90
51884;DHT22;37915;53.254;6.598;2023-04-03T12:44:40;9.10;99.90
51884;DHT22;37915;53.254;6.598;2023-04-03T12:47:15;9.10;99.90
51884;DHT22;37915;53.254;6.598;2023-04-03T12:49:44;9.20;99.90
51884;DHT22;37915;53.254;6.598;2023-04-03T12:52:33;9.40;99.90
51884;DHT22;37915;53.254;6.598;2023-04-03T12:55:01;9.40;99.90
51884;DHT22;37915;53.254;6.598;2023-04-03T12:57:30;9.50;99.90
51884;DHT22;37915;53.254;6.598;2023-04-03T12:59:56;9.50;99.90
51884;DHT22;37915;53.254;6.598;2023-04-03T13:02:23;9.60;99.90
51884;DHT22;37915;53.254;6.598;2023-04-03T13:04:51;9.50;99.90
51884;DHT22;37915;53.254;6.598;2023-04-03T13:07:29;9.60;99.90
51884;DHT22;37915;53.254;6.598;2023-04-03T13:10:03;9.60;99.90
51884;DHT22;37915;53.254;6.598;2023-04-03T13:12:29;9.70;99.90
51884;DHT22;37915;53.254;6.598;2023-04-03T13:14:58;9.80;99.90
51884;DHT22;37915;53.254;6.598;2023-04-03T13:17:25;9.90;99.90
51884;DHT22;37915;53.254;6.598;2023-04-03T13:19:53;9.90;99.90
51884;DHT22;37915;53.254;6.598;2023-04-03T13:22:34;9.80;99.90
51884;DHT22;37915;53.254;6.598;2023-04-03T13:25:07;9.90;99.90
51884;DHT22;37915;53.254;6.598;2023-04-03T13:27:34;10.00;99.90
51884;DHT22;37915;53.254;6.598;2023-04-03T13:30:02;10.10;99.90
51884;DHT22;37915;53.254;6.598;2023-04-03T13:32:30;10.20;99.90
51884;DHT22;37915;53.254;6.598;2023-04-03T13:34:56;10.30;99.90
51884;DHT22;37915;53.254;6.598;2023-04-03T13:37:29;10.30;99.90
51884;DHT22;37915;53.254;6.598;2023-04-03T13:40:01;10.50;99.90
51884;DHT22;37915;53.254;6.598;2023-04-03T13:42:33;10.50;99.90
51884;DHT22;37915;53.254;6.598;2023-04-03T13:47:48;10.80;99.90
51884;DHT22;37915;53.254;6.598;2023-04-03T13:50:25;11.00;99.90
51884;DHT22;37915;53.254;6.598;2023-04-03T13:52:54;11.20;99.90
51884;DHT22;37915;53.254;6.598;2023-04-03T13:55:26;11.20;99.90
51884;DHT22;37915;53.254;6.598;2023-04-03T13:57:59;11.20;99.90
51884;DHT22;37915;53.254;6.598;2023-04-03T14:03:28;11.30;99.90
51884;DHT22;37915;53.254;6.598;2023-04-03T14:05:54;11.30;99.90
51884;DHT22;37915;53.254;6.598;2023-04-03T14:08:20;11.30;99.90
51884;DHT22;37915;53.254;6.598;2023-04-03T14:10:46;11.30;99.90
51884;DHT22;37915;53.254;6.598;2023-04-03T14:13:17;11.40;99.90
51884;DHT22;37915;53.254;6.598;2023-04-03T14:15:44;11.50;99.90
51884;DHT22;37915;53.254;6.598;2023-04-03T14:18:12;11.60;99.90
51884;DHT22;37915;53.254;6.598;2023-04-03T14:20:39;11.80;99.90
51884;DHT22;37915;53.254;6.598;2023-04-03T14:23:04;12.00;99.90
51884;DHT22;37915;53.254;6.598;2023-04-03T14:25:30;12.20;99.90
51884;DHT22;37915;53.254;6.598;2023-04-03T14:27:56;12.20;99.90
51884;DHT22;37915;53.254;6.598;2023-04-03T14:30:29;12.10;99.90
51884;DHT22;37915;53.254;6.598;2023-04-03T14:32:57;12.10;99.90
51884;DHT22;37915;53.254;6.598;2023-04-03T14:35:23;12.10;99.90
51884;DHT22;37915;53.254;6.598;2023-04-03T14:37:50;12.10;99.90
51884;DHT22;37915;53.254;6.598;2023-04-03T14:40:20;12.10;99.90
51884;DHT22;37915;53.254;6.598;2023-04-03T14:42:46;12.00;99.90
51884;DHT22;37915;53.254;6.598;2023-04-03T14:45:13;12.00;99.90
51884;DHT22;37915;53.254;6.598;2023-04-03T14:47:53;11.80;99.90
51884;DHT22;37915;53.254;6.598;2023-04-03T14:50:23;11.80;99.90
51884;DHT22;37915;53.254;6.598;2023-04-03T14:52:52;11.50;99.90
51884;DHT22;37915;53.254;6.598;2023-04-03T14:55:21;11.40;99.90
51884;DHT22;37915;53.254;6.598;2023-04-03T14:57:47;11.40;99.90
51884;DHT22;37915;53.254;6.598;2023-04-03T15:00:15;11.50;99.90
51884;DHT22;37915;53.254;6.598;2023-04-03T15:02:41;11.70;99.90
51884;DHT22;37915;53.254;6.598;2023-04-03T15:05:09;11.90;99.90
51884;DHT22;37915;53.254;6.598;2023-04-03T15:07:38;11.90;99.90
51884;DHT22;37915;53.254;6.598;2023-04-03T15:12:43;11.70;99.90
51884;DHT22;37915;53.254;6.598;2023-04-03T15:15:09;11.70;99.90
51884;DHT22;37915;53.254;6.598;2023-04-03T15:17:36;11.50;99.90
51884;DHT22;37915;53.254;6.598;2023-04-03T15:20:02;11.30;99.90
51884;DHT22;37915;53.254;6.598;2023-04-03T15:22:28;11.30;99.90
51884;DHT22;37915;53.254;6.598;2023-04-03T15:24:53;11.20;99.90
51884;DHT22;37915;53.254;6.598;2023-04-03T15:27:19;11.10;99.90
51884;DHT22;37915;53.254;6.598;2023-04-03T15:29:45;11.10;99.90
51884;DHT22;37915;53.254;6.598;2023-04-03T15:32:12;10.90;99.90
51884;DHT22;37915;53.254;6.598;2023-04-03T15:34:39;11.00;99.90
51884;DHT22;37915;53.254;6.598;2023-04-03T15:37:05;11.00;99.90
51884;DHT22;37915;53.254;6.598;2023-04-03T15:39:31;11.10;99.90
51884;DHT22;37915;53.254;6.598;2023-04-03T15:41:58;11.10;99.90
51884;DHT22;37915;53.254;6.598;2023-04-03T15:44:32;11.10;99.90
51884;DHT22;37915;53.254;6.598;2023-04-03T15:46:58;11.00;99.90
51884;DHT22;37915;53.254;6.598;2023-04-03T15:49:24;11.00;99.90
51884;DHT22;37915;53.254;6.598;2023-04-03T15:51:49;10.90;99.90
51884;DHT22;37915;53.254;6.598;2023-04-03T15:54:16;10.90;99.90
51884;DHT22;37915;53.254;6.598;2023-04-03T15:56:42;10.90;99.90
51884;DHT22;37915;53.254;6.598;2023-04-03T15:59:08;10.80;99.90
51884;DHT22;37915;53.254;6.598;2023-04-03T16:01:34;10.70;99.90
51884;DHT22;37915;53.254;6.598;2023-04-03T16:04:00;10.60;99.90
51884;DHT22;37915;53.254;6.598;2023-04-03T16:06:26;10.70;99.90
51884;DHT22;37915;53.254;6.598;2023-04-03T16:08:54;10.70;99.90
51884;DHT22;37915;53.254;6.598;2023-04-03T16:11:24;10.80;99.90
51884;DHT22;37915;53.254;6.598;2023-04-03T16:13:50;10.80;99.90
51884;DHT22;37915;53.254;6.598;2023-04-03T16:16:16;10.70;99.90
51884;DHT22;37915;53.254;6.598;2023-04-03T16:18:42;10.60;99.90
51884;DHT22;37915;53.254;6.598;2023-04-03T16:21:08;10.60;99.90
51884;DHT22;37915;53.254;6.598;2023-04-03T16:23:34;10.50;99.90
51884;DHT22;37915;53.254;6.598;2023-04-03T16:26:00;10.30;99.90
51884;DHT22;37915;53.254;6.598;2023-04-03T16:28:26;10.20;99.90
51884;DHT22;37915;53.254;6.598;2023-04-03T16:30:51;10.20;99.90
51884;DHT22;37915;53.254;6.598;2023-04-03T16:33:17;10.10;99.90
51884;DHT22;37915;53.254;6.598;2023-04-03T16:35:46;10.10;99.90
51884;DHT22;37915;53.254;6.598;2023-04-03T16:38:14;10.10;99.90
51884;DHT22;37915;53.254;6.598;2023-04-03T16:40:40;9.90;99.90
51884;DHT22;37915;53.254;6.598;2023-04-03T16:43:06;9.80;99.90
51884;DHT22;37915;53.254;6.598;2023-04-03T16:45:32;9.50;99.90
51884;DHT22;37915;53.254;6.598;2023-04-03T16:47:58;9.30;99.90
51884;DHT22;37915;53.254;6.598;2023-04-03T16:50:24;9.10;99.90
51884;DHT22;37915;53.254;6.598;2023-04-03T16:52:50;8.80;99.90
51884;DHT22;37915;53.254;6.598;2023-04-03T16:55:16;8.70;99.90
51884;DHT22;37915;53.254;6.598;2023-04-03T16:57:41;8.50;99.90
51884;DHT22;37915;53.254;6.598;2023-04-03T17:00:08;8.30;99.90
51884;DHT22;37915;53.254;6.598;2023-04-03T17:02:33;8.10;99.90
51884;DHT22;37915;53.254;6.598;2023-04-03T17:04:59;8.00;99.90
51884;DHT22;37915;53.254;6.598;2023-04-03T17:07:26;7.80;99.90
51884;DHT22;37915;53.254;6.598;2023-04-03T17:09:52;7.70;99.90
51884;DHT22;37915;53.254;6.598;2023-04-03T17:12:20;7.60;99.90
51884;DHT22;37915;53.254;6.598;2023-04-03T17:14:45;7.50;99.90